Time;durP1;ratioP1;P1;durP2;ratioP2;P2;SDS_P1;SDS_P2;PMS_P1;PMS_P2;Temp;Humidity;BMP_temperature;BMP_pressure;BME280_temperature;BME280_humidity;BME280_pressure;Samples;Min_cycle;Max_cycle;Signal;HPM_P1;HPM_P2
2023/09/14 00:00:49;;;;;;;14.43;5.60;;;;;;;21.91;46.90;95434.84;5037595;28;20021;-78
2023/09/14 00:03:15;;;;;;;20.92;5.72;;;;;;;21.73;47.60;95441.59;5037091;28;20029;-77
2023/09/14 00:05:42;;;;;;;14.85;5.80;;;;;;;21.64;47.80;95430.13;5053012;28;20113;-78
2023/09/14 00:08:07;;;;;;;17.50;5.72;;;;;;;21.64;47.65;95428.22;5034825;28;20407;-77
2023/09/14 00:10:33;;;;;;;21.02;6.80;;;;;;;21.66;47.98;95431.38;5034704;28;20036;-77
2023/09/14 00:12:59;;;;;;;12.95;5.25;;;;;;;21.38;48.36;95408.84;5034577;28;20066;-77
2023/09/14 00:15:25;;;;;;;16.73;5.88;;;;;;;21.56;48.18;95435.31;5034513;28;20579;-77
2023/09/14 00:17:50;;;;;;;21.45;6.45;;;;;;;21.33;48.38;95388.28;5052883;28;20063;-77
2023/09/14 00:20:32;;;;;;;21.67;5.95;;;;;;;21.45;48.70;95433.38;5052559;28;20048;-78
2023/09/14 00:22:58;;;;;;;15.15;5.88;;;;;;;21.07;48.94;95388.56;5014421;28;20518;-77
2023/09/14 00:25:25;;;;;;;13.07;6.15;;;;;;;21.42;48.83;95434.84;5014835;28;20411;-77
2023/09/14 00:27:51;;;;;;;13.13;5.57;;;;;;;21.22;48.78;95387.16;5033235;28;20041;-77
2023/09/14 00:30:19;;;;;;;13.65;5.28;;;;;;;21.39;48.80;95422.00;5070648;28;20029;-77
2023/09/14 00:32:44;;;;;;;12.25;5.55;;;;;;;21.15;48.93;95379.59;5053851;28;20566;-77
2023/09/14 00:35:11;;;;;;;20.45;5.65;;;;;;;21.43;48.90;95435.63;5072208;28;20125;-78
2023/09/14 00:37:37;;;;;;;15.20;6.13;;;;;;;21.42;48.85;95445.63;5072499;28;20040;-77
2023/09/14 00:40:07;;;;;;;17.35;5.72;;;;;;;20.98;48.50;95414.81;5072626;28;20034;-77
2023/09/14 00:42:42;;;;;;;13.15;6.05;;;;;;;21.12;48.79;95441.50;5053971;28;20049;-78
2023/09/14 00:45:10;;;;;;;15.57;5.57;;;;;;;21.24;48.53;95438.06;5054062;28;20491;-77
2023/09/14 00:47:37;;;;;;;21.08;6.28;;;;;;;21.10;48.50;95422.97;5053886;28;20043;-77
2023/09/14 00:50:05;;;;;;;17.98;6.68;;;;;;;21.32;48.38;95435.28;5072002;28;20025;-77
2023/09/14 00:52:31;;;;;;;15.40;5.82;;;;;;;21.10;49.08;95412.16;5072122;28;20028;-77
2023/09/14 00:54:57;;;;;;;10.55;5.43;;;;;;;21.23;49.04;95431.09;5054226;28;20033;-77
2023/09/14 00:57:24;;;;;;;19.13;6.07;;;;;;;21.10;48.99;95414.06;5054294;28;20032;-77
2023/09/14 00:59:50;;;;;;;14.07;6.38;;;;;;;21.06;49.43;95424.72;5053917;28;20039;-77
2023/09/14 01:02:16;;;;;;;13.15;5.93;;;;;;;21.20;49.26;95437.16;5072322;28;20047;-77
2023/09/14 01:04:41;;;;;;;15.60;5.55;;;;;;;20.94;49.51;95405.06;5071904;28;20423;-77
2023/09/14 01:07:07;;;;;;;19.48;5.60;;;;;;;21.03;49.39;95425.41;5053601;28;20072;-77
2023/09/14 01:09:32;;;;;;;10.38;5.50;;;;;;;20.41;49.28;95323.16;5053609;28;20564;-77
2023/09/14 01:11:59;;;;;;;13.57;5.35;;;;;;;21.00;49.58;95414.50;5053091;28;20033;-77
2023/09/14 01:14:36;;;;;;;19.42;5.75;;;;;;;20.92;50.06;95413.47;5053753;28;20379;-77
2023/09/14 01:17:07;;;;;;;15.10;6.55;;;;;;;20.98;50.50;95427.53;5056478;28;20044;-77
2023/09/14 01:19:45;;;;;;;18.88;5.95;;;;;;;20.96;50.40;95425.19;5074488;28;20032;-77
2023/09/14 01:22:22;;;;;;;16.63;5.95;;;;;;;20.78;50.86;95429.16;5056584;28;20037;-77
2023/09/14 01:28:11;;;;;;;;;;;;;;;20.87;50.24;95429.06;5075511;28;20114;-78
2023/09/14 01:30:37;;;;;;;17.73;6.35;;;;;;;20.77;50.32;95420.28;5056815;28;19913;-78
2023/09/14 01:33:09;;;;;;;12.40;5.95;;;;;;;20.92;50.60;95434.25;5056175;28;20036;-78
2023/09/14 01:35:52;;;;;;;15.77;6.30;;;;;;;20.79;50.56;95409.16;5055665;28;20035;-78
2023/09/14 01:38:17;;;;;;;14.48;6.72;;;;;;;20.72;50.46;95428.56;5055675;28;20143;-78
2023/09/14 01:40:44;;;;;;;16.70;6.93;;;;;;;20.84;50.31;95437.81;5056086;28;20044;-79
2023/09/14 01:43:12;;;;;;;14.48;6.85;;;;;;;20.47;50.36;95375.69;5056102;28;20033;-79
2023/09/14 01:45:38;;;;;;;16.73;6.25;;;;;;;20.85;50.63;95440.19;5055860;28;20028;-79
2023/09/14 01:48:04;;;;;;;16.30;6.32;;;;;;;20.72;50.71;95417.78;5056042;28;20029;-79
2023/09/14 01:50:29;;;;;;;19.88;7.30;;;;;;;20.90;50.77;95440.00;5056249;28;20032;-79
2023/09/14 01:52:56;;;;;;;14.65;6.07;;;;;;;20.26;50.61;95347.97;5076222;28;20090;-79
2023/09/14 01:55:21;;;;;;;18.20;6.65;;;;;;;20.88;50.70;95441.44;5060021;28;20102;-79
2023/09/14 01:57:47;;;;;;;18.48;6.55;;;;;;;20.77;51.03;95439.13;5060587;28;20427;-78
2023/09/14 02:00:12;;;;;;;15.20;6.85;;;;;;;20.74;51.28;95444.41;5059947;28;20097;-78
2023/09/14 02:02:38;;;;;;;22.27;7.05;;;;;;;20.28;51.04;95368.09;5078336;28;20056;-79
2023/09/14 02:05:04;;;;;;;19.23;7.30;;;;;;;20.45;51.00;95406.78;5077963;28;20530;-79
2023/09/14 02:07:29;;;;;;;18.33;6.60;;;;;;;20.63;50.91;95437.84;5059638;28;20037;-79
2023/09/14 02:09:55;;;;;;;21.35;7.85;;;;;;;20.51;51.23;95435.13;5059219;28;20118;-79
2023/09/14 02:12:20;;;;;;;14.20;6.80;;;;;;;20.64;51.48;95444.81;5077428;28;20037;-79
2023/09/14 02:14:46;;;;;;;16.58;6.63;;;;;;;20.42;51.61;95422.50;5059565;28;20058;-79
2023/09/14 02:17:12;;;;;;;17.58;7.57;;;;;;;20.53;51.72;95444.41;5077698;28;20422;-79
2023/09/14 02:19:37;;;;;;;18.98;6.97;;;;;;;20.24;52.13;95412.94;5059942;28;20056;-79
2023/09/14 02:22:03;;;;;;;15.98;6.93;;;;;;;20.46;51.84;95435.28;5077214;28;20039;-79
2023/09/14 02:24:28;;;;;;;14.32;6.65;;;;;;;20.16;52.22;95403.03;5077327;28;20032;-77
2023/09/14 02:26:54;;;;;;;16.90;7.03;;;;;;;20.33;51.69;95431.72;5059918;28;20089;-77
2023/09/14 02:29:20;;;;;;;13.88;6.45;;;;;;;20.39;51.93;95449.28;5077900;28;20112;-77
2023/09/14 02:31:46;;;;;;;21.88;7.88;;;;;;;20.20;51.94;95425.50;5059859;28;20048;-77
2023/09/14 02:34:11;;;;;;;17.63;6.70;;;;;;;20.35;51.81;95440.31;5059421;28;20036;-77
2023/09/14 02:36:37;;;;;;;24.38;8.05;;;;;;;20.42;51.26;95443.25;5074428;28;20111;-77
2023/09/14 02:39:02;;;;;;;17.35;7.55;;;;;;;20.35;51.84;95440.31;5056314;28;20092;-77
2023/09/14 02:41:28;;;;;;;14.15;6.50;;;;;;;20.20;52.29;95424.72;5056153;28;20102;-77
2023/09/14 02:43:53;;;;;;;14.65;6.53;;;;;;;20.14;52.67;95429.47;5074347;28;20032;-77
2023/09/14 02:46:19;;;;;;;19.92;6.78;;;;;;;20.03;53.11;95414.84;5055774;28;20032;-77
2023/09/14 02:48:44;;;;;;;15.13;6.53;;;;;;;20.01;53.13;95412.47;5055759;28;20032;-77
2023/09/14 02:51:09;;;;;;;20.80;7.22;;;;;;;19.77;53.31;95404.22;5074746;28;20032;-77
2023/09/14 02:53:35;;;;;;;16.65;6.65;;;;;;;19.64;53.51;95367.59;5073856;28;20029;-77
2023/09/14 02:56:05;;;;;;;17.67;6.80;;;;;;;19.86;53.40;95390.72;5056095;28;20032;-77
2023/09/14 02:58:31;;;;;;;18.57;6.77;;;;;;;19.57;53.50;95349.28;5074452;28;20032;-77
2023/09/14 03:00:56;;;;;;;25.90;6.93;;;;;;;19.69;53.84;95401.59;5056010;28;20035;-77
2023/09/14 03:03:22;;;;;;;18.10;7.25;;;;;;;19.87;53.88;95429.97;5073883;28;20024;-77
2023/09/14 03:05:48;;;;;;;16.77;7.45;;;;;;;19.54;53.97;95390.28;5054952;28;20036;-77
2023/09/14 03:08:13;;;;;;;13.95;7.03;;;;;;;19.74;53.89;95409.50;5055900;28;20029;-77
2023/09/14 03:10:42;;;;;;;20.10;7.13;;;;;;;19.79;53.82;95410.09;5073848;28;20487;-77
2023/09/14 03:13:07;;;;;;;21.05;7.10;;;;;;;19.82;53.67;95406.75;5073854;28;20387;-77
2023/09/14 03:15:34;;;;;;;20.42;7.47;;;;;;;19.96;53.81;95439.59;5074105;28;20043;-77
2023/09/14 03:18:00;;;;;;;13.68;6.82;;;;;;;19.87;53.56;95413.84;5073699;28;20036;-77
2023/09/14 03:20:25;;;;;;;15.35;7.72;;;;;;;19.56;53.89;95365.75;5055479;28;20036;-78
2023/09/14 03:22:50;;;;;;;19.45;6.82;;;;;;;19.67;54.19;95414.59;5055531;28;20039;-77
2023/09/14 03:25:16;;;;;;;17.02;7.25;;;;;;;19.74;54.16;95433.72;5074250;28;20039;-77
2023/09/14 03:27:41;;;;;;;19.65;6.85;;;;;;;19.58;53.58;95376.97;5055708;28;20043;-77
2023/09/14 03:30:08;;;;;;;23.48;6.65;;;;;;;19.55;54.19;95402.63;5056021;28;20036;-77
2023/09/14 03:32:33;;;;;;;21.40;7.22;;;;;;;19.82;54.48;95447.13;5075146;28;20024;-78
2023/09/14 03:34:59;;;;;;;20.20;7.03;;;;;;;19.88;54.62;95436.94;5076028;28;20499;-77
2023/09/14 03:37:24;;;;;;;18.30;7.20;;;;;;;19.55;54.70;95420.66;5060557;28;20036;-77
2023/09/14 03:39:50;;;;;;;18.10;6.32;;;;;;;19.70;54.85;95438.94;5060840;28;20147;-77
2023/09/14 03:42:16;;;;;;;13.35;6.40;;;;;;;19.53;55.17;95418.28;5060387;28;20063;-77
2023/09/14 03:44:41;;;;;;;17.67;7.22;;;;;;;19.46;55.05;95407.22;5068467;28;20032;-78
2023/09/14 03:47:07;;;;;;;24.85;7.72;;;;;;;19.49;55.06;95403.91;5071904;28;20036;-77
2023/09/14 03:49:33;;;;;;;20.70;7.38;;;;;;;19.68;54.49;95416.19;5058963;28;20518;-77
2023/09/14 03:51:58;;;;;;;16.83;7.38;;;;;;;19.70;53.85;95412.03;5058880;28;20028;-77
2023/09/14 03:54:23;;;;;;;16.25;6.78;;;;;;;19.96;53.97;95436.91;5058299;28;20428;-77
2023/09/14 03:56:49;;;;;;;26.02;8.38;;;;;;;19.90;54.16;95448.97;5077370;28;20040;-77
2023/09/14 03:59:14;;;;;;;12.93;6.72;;;;;;;20.00;54.05;95440.50;5059462;28;20033;-77
2023/09/14 04:01:40;;;;;;;25.83;7.45;;;;;;;19.75;54.78;95454.13;5056568;28;20039;-77
2023/09/14 04:04:05;;;;;;;19.20;7.00;;;;;;;19.06;55.26;95365.66;5056249;28;20037;-77
2023/09/14 04:06:31;;;;;;;21.88;7.63;;;;;;;19.36;55.41;95418.34;5038499;28;20033;-77
2023/09/14 04:08:56;;;;;;;29.92;8.73;;;;;;;19.68;54.59;95448.47;5038421;28;20036;-77
2023/09/14 04:11:22;;;;;;;27.65;8.25;;;;;;;19.71;54.73;95432.44;5035448;28;20037;-77
2023/09/14 04:13:48;;;;;;;18.33;8.23;;;;;;;19.77;54.32;95424.97;5021966;28;20025;-77
2023/09/14 04:16:14;;;;;;;25.75;9.98;;;;;;;19.78;54.62;95435.41;5059640;28;20107;-78
2023/09/14 04:18:39;;;;;;;33.75;9.52;;;;;;;19.87;54.90;95457.69;5057569;28;20071;-78
2023/09/14 04:21:05;;;;;;;23.58;9.07;;;;;;;19.52;53.88;95397.13;5057110;28;20425;-78
2023/09/14 04:23:31;;;;;;;25.67;8.57;;;;;;;19.93;54.08;95464.47;5057002;28;20034;-78
2023/09/14 04:25:57;;;;;;;24.10;8.68;;;;;;;19.61;54.21;95417.44;5057296;28;20421;-78
2023/09/14 04:28:22;;;;;;;28.30;8.45;;;;;;;19.83;54.38;95446.00;5058135;28;20388;-78
2023/09/14 04:30:51;;;;;;;21.20;7.45;;;;;;;19.84;54.42;95473.69;5075778;28;20426;-78
2023/09/14 04:33:18;;;;;;;19.25;8.15;;;;;;;19.82;54.47;95467.84;5058167;28;20035;-78
2023/09/14 04:35:44;;;;;;;25.15;8.95;;;;;;;19.73;54.56;95467.91;5057118;28;20085;-78
2023/09/14 04:38:10;;;;;;;26.88;8.23;;;;;;;19.63;55.06;95458.28;5057923;28;20119;-79
2023/09/14 04:40:42;;;;;;;20.55;8.77;;;;;;;19.73;54.68;95467.91;5057457;28;20248;-79
2023/09/14 04:43:09;;;;;;;21.30;8.02;;;;;;;19.63;55.16;95469.03;5065452;28;20040;-78
2023/09/14 04:45:34;;;;;;;21.02;7.80;;;;;;;19.63;54.55;95457.50;5035757;28;20033;-77
2023/09/14 04:48:00;;;;;;;19.05;8.50;;;;;;;19.51;54.38;95425.91;5037074;28;20123;-77
2023/09/14 04:50:26;;;;;;;23.50;9.13;;;;;;;19.81;53.77;95459.00;5038443;28;20057;-77
2023/09/14 04:52:51;;;;;;;20.40;8.20;;;;;;;19.61;54.19;95454.31;5037374;28;20072;-77
2023/09/14 04:55:17;;;;;;;19.42;8.15;;;;;;;19.68;54.46;95461.91;5037561;28;20045;-78
2023/09/14 04:57:42;;;;;;;22.83;8.10;;;;;;;19.60;54.15;95453.56;5060661;28;20025;-78
2023/09/14 05:00:09;;;;;;;20.75;7.93;;;;;;;19.72;54.26;95450.16;5047713;28;20068;-77
2023/09/14 05:02:35;;;;;;;26.77;8.35;;;;;;;19.80;53.96;95452.03;5047600;28;20030;-77
2023/09/14 05:05:02;;;;;;;23.25;8.38;;;;;;;19.79;53.64;95439.69;5033070;28;20458;-77
2023/09/14 05:07:27;;;;;;;25.73;8.15;;;;;;;19.68;53.81;95424.25;5046228;28;20029;-77
2023/09/14 05:09:53;;;;;;;23.55;8.38;;;;;;;20.04;53.86;95475.66;5027505;28;20103;-77
2023/09/14 05:12:18;;;;;;;23.60;7.70;;;;;;;20.09;53.38;95462.00;5054227;28;20032;-77
2023/09/14 05:14:43;;;;;;;18.90;7.97;;;;;;;19.79;52.99;95415.47;5042584;28;20105;-77
2023/09/14 05:17:09;;;;;;;19.58;8.30;;;;;;;19.83;52.49;95399.47;5028721;28;20495;-78
2023/09/14 05:19:34;;;;;;;21.58;7.85;;;;;;;20.46;52.37;95486.47;5025480;28;20040;-78
2023/09/14 05:22:00;;;;;;;20.98;8.13;;;;;;;20.53;51.80;95486.75;5032361;28;20088;-77
2023/09/14 05:24:25;;;;;;;27.98;8.25;;;;;;;20.59;51.77;95493.53;5030896;28;20033;-78
2023/09/14 05:26:52;;;;;;;23.60;8.38;;;;;;;20.50;51.47;95463.16;5042375;28;20154;-78
2023/09/14 05:29:18;;;;;;;15.70;8.55;;;;;;;20.46;51.42;95446.84;5007312;28;20127;-74
2023/09/14 05:31:43;;;;;;;30.95;8.90;;;;;;;20.69;51.38;95477.72;5036884;28;20120;-75
2023/09/14 05:34:09;;;;;;;25.05;9.23;;;;;;;20.67;51.33;95463.03;5036960;28;20036;-75
2023/09/14 05:36:34;;;;;;;19.30;8.48;;;;;;;20.69;51.48;95463.47;5023090;28;20037;-76
2023/09/14 05:38:59;;;;;;;17.13;7.18;;;;;;;20.77;51.64;95476.09;5005675;28;20020;-75
2023/09/14 05:41:25;;;;;;;23.35;8.73;;;;;;;20.59;51.05;95435.03;5021408;28;20593;-75
2023/09/14 05:43:50;;;;;;;23.17;8.02;;;;;;;20.93;50.75;95484.34;5002432;28;20399;-75
2023/09/14 05:46:16;;;;;;;18.63;8.00;;;;;;;20.76;50.79;95445.66;5009685;28;20545;-75
2023/09/14 05:48:42;;;;;;;29.30;8.18;;;;;;;21.01;50.89;95481.56;5014375;28;20044;-78
2023/09/14 05:51:08;;;;;;;19.02;9.30;;;;;;;20.97;50.33;95467.19;5002589;28;20048;-77
2023/09/14 05:53:34;;;;;;;24.85;8.50;;;;;;;21.01;50.85;95476.19;4993388;28;20041;-77
2023/09/14 05:55:59;;;;;;;20.67;9.40;;;;;;;21.02;50.18;95471.56;4990782;28;20044;-75
2023/09/14 05:58:25;;;;;;;27.30;9.65;;;;;;;21.10;49.63;95482.28;4998216;28;20740;-73
2023/09/14 06:00:51;;;;;;;18.38;8.88;;;;;;;21.11;49.19;95478.47;5016101;28;20491;-74
2023/09/14 06:03:16;;;;;;;21.73;8.23;;;;;;;21.15;49.53;95490.16;5031107;28;20130;-76
2023/09/14 06:05:42;;;;;;;24.67;9.35;;;;;;;21.20;49.43;95477.63;5017590;28;20040;-76
2023/09/14 06:08:07;;;;;;;23.85;9.95;;;;;;;21.31;49.38;95486.84;5021034;28;20110;-76
2023/09/14 06:10:33;;;;;;;22.73;9.43;;;;;;;21.39;49.14;95484.06;4997478;28;20043;-76
2023/09/14 06:12:58;;;;;;;25.40;9.35;;;;;;;21.46;49.21;95476.22;4986034;28;20037;-77
2023/09/14 06:15:24;;;;;;;34.47;9.43;;;;;;;21.41;49.45;95479.13;4983126;28;20041;-77
2023/09/14 06:17:49;;;;;;;35.80;9.20;;;;;;;21.30;49.32;95442.91;4988997;28;20908;-78
2023/09/14 06:20:15;;;;;;;26.83;9.85;;;;;;;21.58;48.82;95458.47;5002823;28;20116;-78
2023/09/14 06:22:41;;;;;;;19.00;9.73;;;;;;;21.48;48.60;95460.47;5023309;28;20430;-77
2023/09/14 06:25:07;;;;;;;25.42;10.27;;;;;;;21.16;48.69;95432.44;5022148;28;20044;-76
2023/09/14 06:27:32;;;;;;;29.85;10.32;;;;;;;21.54;48.65;95488.81;5026224;28;20371;-77
2023/09/14 06:29:58;;;;;;;37.03;10.60;;;;;;;21.71;48.81;95489.72;5009092;28;20033;-76
2023/09/14 06:32:24;;;;;;;30.50;9.43;;;;;;;21.51;48.11;95461.72;5013861;28;20087;-78
2023/09/14 06:34:49;;;;;;;26.38;8.48;;;;;;;21.81;48.27;95489.31;5022343;28;20037;-77
2023/09/14 06:37:15;;;;;;;29.65;9.90;;;;;;;21.63;48.29;95471.72;5029362;28;20079;-78
2023/09/14 06:39:40;;;;;;;23.40;9.40;;;;;;;21.91;48.11;95495.03;5005068;28;20037;-77
2023/09/14 06:42:06;;;;;;;26.58;10.70;;;;;;;21.63;47.95;95459.03;5010367;28;20416;-78
2023/09/14 06:44:32;;;;;;;34.13;10.07;;;;;;;21.75;48.22;95515.72;5003979;28;20037;-78
2023/09/14 06:46:57;;;;;;;25.83;9.88;;;;;;;21.73;47.83;95504.47;5013387;28;20110;-78
2023/09/14 06:49:23;;;;;;;29.67;9.40;;;;;;;21.58;47.86;95467.34;5016268;28;20029;-79
2023/09/14 06:51:49;;;;;;;20.65;9.50;;;;;;;21.56;48.10;95475.78;5016742;28;20037;-79
2023/09/14 06:54:14;;;;;;;33.50;10.02;;;;;;;21.81;47.81;95500.09;4993483;28;20041;-77
2023/09/14 06:56:40;;;;;;;23.25;8.80;;;;;;;21.81;47.60;95511.69;4985951;28;20032;-77
2023/09/14 06:59:06;;;;;;;26.88;9.52;;;;;;;21.69;47.66;95490.06;5007663;28;20075;-76
2023/09/14 07:01:31;;;;;;;30.25;9.23;;;;;;;21.98;47.56;95512.59;5012895;28;20041;-77
2023/09/14 07:03:56;;;;;;;28.30;9.43;;;;;;;21.95;47.45;95495.94;5026826;28;20044;-76
2023/09/14 07:06:22;;;;;;;34.58;11.18;;;;;;;21.98;47.39;95502.59;5002780;28;20063;-76
2023/09/14 07:08:48;;;;;;;25.75;9.88;;;;;;;22.14;47.13;95503.50;5019685;28;20067;-76
2023/09/14 07:11:14;;;;;;;32.95;9.98;;;;;;;22.20;46.81;95487.84;5026850;28;20037;-76
2023/09/14 07:13:39;;;;;;;27.92;11.95;;;;;;;22.44;46.38;95512.13;5015629;28;20044;-78
2023/09/14 07:16:05;;;;;;;31.45;9.07;;;;;;;22.30;45.32;95490.06;5019848;28;20278;-77
2023/09/14 07:18:32;;;;;;;22.08;8.50;;;;;;;22.51;45.19;95511.53;5002020;28;20639;-78
2023/09/14 07:21:00;;;;;;;30.02;10.02;;;;;;;22.49;45.21;95489.50;5009367;28;20059;-76
2023/09/14 07:23:26;;;;;;;29.80;9.88;;;;;;;22.71;44.97;95511.41;4999220;28;20148;-76
2023/09/14 07:25:52;;;;;;;28.95;10.05;;;;;;;22.55;44.95;95512.44;5000689;28;20043;-77
2023/09/14 07:28:19;;;;;;;36.00;9.73;;;;;;;22.36;45.82;95502.22;5005506;28;20071;-76
2023/09/14 07:30:45;;;;;;;25.10;9.40;;;;;;;22.21;45.32;95465.88;4998865;28;20091;-77
2023/09/14 07:33:11;;;;;;;31.02;9.93;;;;;;;22.50;44.98;95488.38;5002993;28;20033;-77
2023/09/14 07:35:36;;;;;;;27.98;9.52;;;;;;;22.25;45.00;95482.22;4992897;28;20527;-78
2023/09/14 07:38:02;;;;;;;32.25;10.30;;;;;;;22.14;45.09;95481.09;4996283;28;20052;-78
2023/09/14 07:40:28;;;;;;;25.13;9.02;;;;;;;22.07;44.73;95443.84;5009751;28;20029;-77
2023/09/14 07:42:53;;;;;;;25.55;9.05;;;;;;;22.58;44.78;95519.88;5028266;28;20049;-77
2023/09/14 07:45:19;;;;;;;32.42;9.93;;;;;;;22.49;44.67;95487.59;5030372;28;20071;-76
2023/09/14 07:47:45;;;;;;;42.15;10.13;;;;;;;22.52;44.96;95486.09;5021718;28;20037;-76
2023/09/14 07:50:11;;;;;;;29.17;8.93;;;;;;;22.33;44.68;95459.69;5024834;28;20750;-75
2023/09/14 07:52:36;;;;;;;22.63;8.40;;;;;;;22.58;44.50;95469.28;5029956;28;20037;-76
2023/09/14 07:55:04;;;;;;;37.00;8.63;;;;;;;22.88;44.08;95515.78;5018855;28;20041;-76
2023/09/14 07:57:29;;;;;;;22.85;8.10;;;;;;;22.77;43.76;95516.59;5033424;28;20074;-76
2023/09/14 07:59:55;;;;;;;28.48;8.93;;;;;;;22.65;44.59;95514.69;5033348;28;20476;-76
2023/09/14 08:02:20;;;;;;;30.13;9.65;;;;;;;22.88;44.02;95515.00;5024782;28;20527;-76
2023/09/14 08:04:47;;;;;;;30.35;8.85;;;;;;;22.79;44.11;95512.41;5039358;28;20044;-75
2023/09/14 08:07:12;;;;;;;31.48;7.90;;;;;;;21.96;43.72;95394.13;5017627;28;20056;-75
2023/09/14 08:09:38;;;;;;;25.17;8.13;;;;;;;22.68;43.64;95470.72;5031354;28;20087;-76
2023/09/14 08:12:04;;;;;;;26.05;8.07;;;;;;;22.97;43.74;95504.78;5014367;28;20032;-75
2023/09/14 08:14:29;;;;;;;30.55;7.15;;;;;;;23.15;43.45;95505.28;5008564;28;20029;-78
2023/09/14 08:16:54;;;;;;;18.40;6.60;;;;;;;23.21;42.77;95498.50;5022440;28;20099;-77
2023/09/14 08:19:20;;;;;;;33.53;8.05;;;;;;;23.11;43.10;95459.22;5007837;28;20196;-77
2023/09/14 08:21:45;;;;;;;20.58;7.10;;;;;;;23.47;42.55;95494.19;5016661;28;20029;-78
2023/09/14 08:24:11;;;;;;;25.17;6.75;;;;;;;23.43;42.71;95479.75;5025518;28;20040;-77
2023/09/14 08:26:36;;;;;;;30.02;7.13;;;;;;;23.62;42.06;95494.56;5035840;28;20063;-78
2023/09/14 08:29:02;;;;;;;20.35;5.78;;;;;;;23.63;41.46;95483.41;5021804;28;20515;-77
2023/09/14 08:31:27;;;;;;;28.13;6.38;;;;;;;23.76;41.27;95487.59;5020636;28;20039;-77
2023/09/14 08:33:53;;;;;;;28.02;6.50;;;;;;;23.84;41.27;95483.13;5023579;28;20048;-75
2023/09/14 08:36:18;;;;;;;21.92;7.18;;;;;;;23.83;41.01;95481.56;5039407;28;20113;-75
2023/09/14 08:38:43;;;;;;;21.73;6.55;;;;;;;23.79;41.07;95470.66;5017682;28;20094;-76
2023/09/14 08:41:22;;;;;;;38.20;8.05;;;;;;;23.98;40.71;95483.47;5009542;28;20472;-76
2023/09/14 08:43:48;;;;;;;36.95;6.55;;;;;;;23.97;40.78;95459.44;5001424;28;20033;-76
2023/09/14 08:46:15;;;;;;;22.90;6.57;;;;;;;23.98;40.89;95459.09;5016476;28;20048;-77
2023/09/14 08:48:43;;;;;;;24.15;6.30;;;;;;;24.28;40.58;95474.88;5019192;28;20160;-77
2023/09/14 08:51:10;;;;;;;30.63;6.82;;;;;;;24.27;40.31;95473.31;5023857;28;20040;-76
2023/09/14 08:53:37;;;;;;;21.55;6.53;;;;;;;24.43;39.63;95474.84;5020218;28;20037;-77
2023/09/14 08:56:04;;;;;;;26.90;7.55;;;;;;;24.31;40.01;95436.25;4998836;28;20037;-77
2023/09/14 08:58:30;;;;;;;30.33;7.93;;;;;;;24.51;39.43;95443.25;5003832;28;20407;-77
2023/09/14 09:00:57;;;;;;;33.42;7.43;;;;;;;24.69;39.42;95444.41;4998150;28;20475;-77
2023/09/14 09:03:22;;;;;;;23.95;6.20;;;;;;;24.79;38.94;95440.34;5002531;28;20108;-77
2023/09/14 09:05:49;;;;;;;28.08;7.00;;;;;;;25.04;38.93;95433.47;5017488;28;20037;-77
2023/09/14 09:08:15;;;;;;;29.02;7.35;;;;;;;25.16;38.68;95441.47;5023084;28;20029;-77
2023/09/14 09:10:42;;;;;;;37.85;8.10;;;;;;;25.34;38.32;95458.84;5002450;28;20056;-77
2023/09/14 09:13:07;;;;;;;19.63;6.65;;;;;;;25.37;38.65;95438.34;5005246;28;20392;-77
2023/09/14 09:15:36;;;;;;;27.52;6.70;;;;;;;25.63;37.92;95443.09;5000574;28;20036;-77
2023/09/14 09:18:11;;;;;;;20.23;7.68;;;;;;;25.85;38.14;95433.34;4997738;28;20127;-77
2023/09/14 09:20:45;;;;;;;27.98;6.57;;;;;;;25.82;38.41;95429.44;5006133;28;20060;-77
2023/09/14 09:23:13;;;;;;;23.92;6.57;;;;;;;25.97;37.93;95420.34;5009307;28;20033;-77
2023/09/14 09:25:51;;;;;;;21.90;6.82;;;;;;;25.91;37.18;95377.56;4996706;28;20045;-76
2023/09/14 09:28:17;;;;;;;31.13;6.50;;;;;;;26.29;36.54;95422.78;5003287;28;20033;-77
2023/09/14 09:30:44;;;;;;;28.10;6.57;;;;;;;26.36;36.60;95415.50;5001448;28;20036;-76
2023/09/14 09:33:10;;;;;;;18.25;6.72;;;;;;;26.48;36.04;95404.38;5020356;28;20037;-76
2023/09/14 09:35:35;;;;;;;22.88;7.22;;;;;;;26.64;36.42;95417.78;5003866;28;20143;-76
2023/09/14 09:38:12;;;;;;;34.88;7.50;;;;;;;26.59;36.05;95399.06;4984733;28;20147;-77
2023/09/14 09:40:43;;;;;;;33.70;7.97;;;;;;;26.69;35.61;95400.38;4961701;28;20032;-76
2023/09/14 09:43:09;;;;;;;27.75;7.05;;;;;;;26.94;35.52;95425.16;4971595;28;20549;-76
2023/09/14 09:45:40;;;;;;;18.00;6.35;;;;;;;26.87;35.23;95404.06;4967259;28;20834;-76
2023/09/14 09:48:06;;;;;;;24.92;6.45;;;;;;;26.84;34.88;95402.09;4976780;28;20463;-76
2023/09/14 09:50:32;;;;;;;34.38;7.22;;;;;;;26.96;35.44;95412.75;4947673;28;20041;-76
2023/09/14 09:52:57;;;;;;;24.60;6.38;;;;;;;26.85;34.98;95388.09;4970021;28;20048;-77
2023/09/14 09:55:25;;;;;;;26.92;5.43;;;;;;;27.37;34.71;95413.56;4983739;28;20488;-76
2023/09/14 09:57:55;;;;;;;22.48;6.75;;;;;;;27.62;34.14;95411.84;4982657;28;20161;-76
2023/09/14 10:00:34;;;;;;;23.65;6.00;;;;;;;27.95;33.11;95410.16;4986209;28;21688;-79
2023/09/14 10:03:01;;;;;;;23.98;6.20;;;;;;;28.13;32.73;95377.56;4993048;28;20037;-80
2023/09/14 10:05:45;;;;;;;22.90;5.97;;;;;;;28.33;31.51;95297.03;5012507;28;20056;-81
2023/09/14 10:08:15;;;;;;;23.98;6.40;;;;;;;29.64;30.73;95409.31;5016350;28;20108;-80
2023/09/14 10:10:41;;;;;;;18.10;5.55;;;;;;;30.14;30.10;95388.19;5020292;28;20036;-80
2023/09/14 10:13:09;;;;;;;19.05;5.82;;;;;;;30.62;29.20;95404.91;5021524;28;20545;-80
2023/09/14 10:15:36;;;;;;;23.23;5.80;;;;;;;30.92;28.86;95365.25;5039771;28;20127;-79
2023/09/14 10:18:03;;;;;;;16.92;5.28;;;;;;;31.67;27.73;95390.25;5035638;28;21212;-81
2023/09/14 10:20:29;;;;;;;16.10;5.30;;;;;;;32.18;27.06;95373.75;5045224;28;20872;-82
2023/09/14 10:22:56;;;;;;;13.98;5.13;;;;;;;32.92;26.05;95383.09;5026538;28;20146;-81
2023/09/14 10:25:22;;;;;;;16.02;4.82;;;;;;;33.10;25.50;95344.41;5032716;28;20144;-80
2023/09/14 10:27:47;;;;;;;13.75;5.53;;;;;;;33.61;24.97;95380.94;4998953;28;20036;-79
2023/09/14 10:30:20;;;;;;;13.05;5.32;;;;;;;33.71;24.62;95375.28;5002303;28;20189;-80
2023/09/14 10:32:52;;;;;;;9.82;4.65;;;;;;;33.48;24.48;95361.53;5000331;28;20033;-79
2023/09/14 10:35:18;;;;;;;13.00;5.18;;;;;;;33.62;24.15;95341.25;4997241;28;20032;-79
2023/09/14 10:37:45;;;;;;;20.90;5.47;;;;;;;33.78;24.02;95368.91;5015619;28;20041;-79
2023/09/14 10:40:13;;;;;;;15.48;5.25;;;;;;;34.06;23.82;95373.13;5029945;28;20553;-79
2023/09/14 10:42:42;;;;;;;23.90;5.43;;;;;;;34.21;23.62;95363.44;5010583;28;21318;-80
2023/09/14 10:45:10;;;;;;;15.60;5.72;;;;;;;34.50;22.88;95371.16;5010020;28;20462;-79
2023/09/14 10:47:38;;;;;;;18.98;5.50;;;;;;;34.32;22.44;95361.28;5014991;28;20353;-80
2023/09/14 10:50:09;;;;;;;18.58;5.30;;;;;;;33.64;23.02;95275.63;4995750;28;20835;-80
2023/09/14 10:52:34;;;;;;;12.80;4.85;;;;;;;33.62;23.06;95342.03;5005602;28;20495;-80
2023/09/14 10:55:00;;;;;;;16.58;4.70;;;;;;;33.68;22.90;95354.13;5020444;28;20041;-79
2023/09/14 10:57:29;;;;;;;12.40;5.45;;;;;;;33.49;23.27;95346.56;5030572;28;20039;-79
2023/09/14 10:59:58;;;;;;;16.95;5.35;;;;;;;33.48;22.65;95330.50;5012309;28;20334;-78
2023/09/14 11:02:48;;;;;;;10.77;4.80;;;;;;;33.42;23.04;95346.66;5013792;28;20059;-79
2023/09/14 11:05:19;;;;;;;11.00;5.78;;;;;;;33.67;22.99;95336.06;5033993;28;20029;-79
2023/09/14 11:07:58;;;;;;;12.07;5.32;;;;;;;33.79;22.75;95320.19;5030792;28;20238;-78
2023/09/14 11:10:24;;;;;;;16.23;5.43;;;;;;;34.04;22.43;95321.28;5034642;28;20167;-79
2023/09/14 11:12:51;;;;;;;13.30;4.88;;;;;;;33.75;22.23;95264.44;5025948;28;20408;-78
2023/09/14 11:15:20;;;;;;;19.50;4.95;;;;;;;34.33;21.00;95309.78;5035320;28;20036;-80
2023/09/14 11:17:47;;;;;;;15.57;4.82;;;;;;;34.57;21.90;95308.47;5057751;28;20059;-80
2023/09/14 11:20:19;;;;;;;13.45;5.13;;;;;;;34.84;21.71;95325.63;5046927;28;20024;-80
2023/09/14 11:22:44;;;;;;;10.60;4.15;;;;;;;34.96;20.61;95320.66;5054105;28;20376;-80
2023/09/14 11:25:11;;;;;;;21.42;4.72;;;;;;;34.06;20.41;95268.56;5060446;28;20071;-80